Time;durP1;ratioP1;P1;durP2;ratioP2;P2;SDS_P1;SDS_P2;PMS_P1;PMS_P2;Temp;Humidity;BMP_temperature;BMP_pressure;BME280_temperature;BME280_humidity;BME280_pressure;Samples;Min_cycle;Max_cycle;Signal;HPM_P1;HPM_P2
2022/03/23 00:02:26;;;;;;;14.18;9.10;;;7.90;99.90;;;;;;5097860;28;20093;-80
2022/03/23 00:04:55;;;;;;;15.10;9.75;;;8.00;99.90;;;;;;5085627;28;20028;-79
2022/03/23 00:07:21;;;;;;;9.73;8.73;;;8.00;99.90;;;;;;5099679;28;20068;-79
2022/03/23 00:09:47;;;;;;;13.63;9.93;;;8.00;99.90;;;;;;5098673;28;20020;-80
2022/03/23 00:12:13;;;;;;;14.82;10.57;;;8.00;99.90;;;;;;5098712;28;20043;-80
2022/03/23 00:14:39;;;;;;;13.05;9.70;;;8.00;99.90;;;;;;5099051;28;20024;-80
2022/03/23 00:17:05;;;;;;;12.40;10.05;;;7.90;99.90;;;;;;5099427;28;20052;-80
2022/03/23 00:19:31;;;;;;;13.13;8.93;;;8.00;99.90;;;;;;5098676;28;20020;-79
2022/03/23 00:21:57;;;;;;;15.02;10.30;;;7.90;99.90;;;;;;5097658;28;20051;-79
2022/03/23 00:24:23;;;;;;;13.95;9.73;;;7.90;99.90;;;;;;5097994;28;20060;-79
2022/03/23 00:26:49;;;;;;;12.90;8.68;;;7.90;99.90;;;;;;5098543;28;20032;-80
2022/03/23 00:29:15;;;;;;;14.68;9.70;;;7.80;99.90;;;;;;5097535;28;20028;-80
2022/03/23 00:31:40;;;;;;;16.83;9.98;;;7.80;99.90;;;;;;5098839;28;20090;-80
2022/03/23 00:34:06;;;;;;;18.00;10.02;;;7.80;99.90;;;;;;5098672;28;20576;-79
2022/03/23 00:36:32;;;;;;;13.45;9.73;;;7.80;99.90;;;;;;5098146;28;20050;-79
2022/03/23 00:38:58;;;;;;;13.50;9.10;;;7.80;99.90;;;;;;5098704;28;20480;-80
2022/03/23 00:41:24;;;;;;;20.50;10.45;;;7.80;99.90;;;;;;5098178;28;20083;-80
2022/03/23 00:43:50;;;;;;;13.52;10.25;;;7.80;99.90;;;;;;5098101;28;20024;-80
2022/03/23 00:46:16;;;;;;;13.90;11.18;;;7.90;99.90;;;;;;5097945;28;20031;-80
2022/03/23 00:48:42;;;;;;;11.18;9.95;;;7.90;99.90;;;;;;5096049;28;20118;-80
2022/03/23 00:51:08;;;;;;;18.35;10.38;;;7.80;99.90;;;;;;5098216;28;20035;-80
2022/03/23 00:53:34;;;;;;;10.20;8.73;;;7.90;99.90;;;;;;5097035;28;20147;-80
2022/03/23 00:56:01;;;;;;;17.48;9.23;;;7.90;99.90;;;;;;5097476;28;20017;-80
2022/03/23 00:58:26;;;;;;;11.80;9.65;;;7.80;99.90;;;;;;5098175;28;20081;-80
2022/03/23 01:00:53;;;;;;;12.27;8.77;;;7.90;99.90;;;;;;5098194;28;20024;-80
2022/03/23 01:03:19;;;;;;;16.83;10.38;;;7.90;99.90;;;;;;5098061;28;20027;-80
2022/03/23 01:05:45;;;;;;;19.40;9.80;;;7.90;99.90;;;;;;5098004;28;20020;-80
2022/03/23 01:08:11;;;;;;;14.65;10.48;;;7.90;99.90;;;;;;5097587;28;20024;-79
2022/03/23 01:10:37;;;;;;;14.70;9.20;;;7.80;99.90;;;;;;5097328;28;20150;-80
2022/03/23 01:13:03;;;;;;;11.13;9.32;;;7.80;99.90;;;;;;5096164;28;20035;-80
2022/03/23 01:15:30;;;;;;;16.75;9.48;;;7.80;99.90;;;;;;5097436;28;20024;-80
2022/03/23 01:17:56;;;;;;;15.70;9.40;;;7.80;99.90;;;;;;5096493;28;20028;-80
2022/03/23 01:20:22;;;;;;;13.52;10.65;;;7.80;99.90;;;;;;5096024;28;20031;-80
2022/03/23 01:22:50;;;;;;;11.48;9.35;;;7.90;99.90;;;;;;5088705;28;20031;-80
2022/03/23 01:25:16;;;;;;;13.88;9.23;;;7.80;99.90;;;;;;5097053;28;20546;-79
2022/03/23 01:27:44;;;;;;;17.52;10.05;;;7.90;99.90;;;;;;5097520;28;20024;-80
2022/03/23 01:30:12;;;;;;;14.50;9.63;;;7.90;99.90;;;;;;5097157;28;20020;-80
2022/03/23 01:32:38;;;;;;;11.40;9.63;;;7.90;99.90;;;;;;5096029;28;20025;-80
2022/03/23 01:35:07;;;;;;;13.60;9.57;;;7.80;99.90;;;;;;5097081;28;20043;-79
2022/03/23 01:37:34;;;;;;;11.43;10.15;;;7.80;99.90;;;;;;5098949;28;20035;-80
2022/03/23 01:40:01;;;;;;;12.80;9.60;;;7.70;99.90;;;;;;5099873;28;20016;-80
2022/03/23 01:42:27;;;;;;;15.05;9.13;;;7.70;99.90;;;;;;5100123;28;20518;-79
2022/03/23 01:44:54;;;;;;;10.23;9.02;;;7.70;99.90;;;;;;5101428;28;20063;-80
2022/03/23 01:47:19;;;;;;;13.13;9.18;;;7.70;99.90;;;;;;5100353;28;20024;-79
2022/03/23 01:49:48;;;;;;;11.93;9.50;;;7.70;99.90;;;;;;5101322;28;20027;-81
2022/03/23 01:52:17;;;;;;;10.73;8.68;;;7.70;99.90;;;;;;5100780;28;20395;-80
2022/03/23 01:54:44;;;;;;;15.18;10.60;;;7.70;99.90;;;;;;5101148;28;20156;-79
2022/03/23 01:57:13;;;;;;;15.65;10.48;;;7.80;99.90;;;;;;5101433;28;20031;-80
2022/03/23 01:59:39;;;;;;;13.57;9.75;;;7.80;99.90;;;;;;5099665;28;20393;-80
2022/03/23 02:02:06;;;;;;;14.73;10.35;;;7.70;99.90;;;;;;5099697;28;20024;-80
2022/03/23 02:04:32;;;;;;;12.02;9.05;;;7.70;99.90;;;;;;5100952;28;20031;-79
2022/03/23 02:06:58;;;;;;;10.57;9.10;;;7.60;99.90;;;;;;5101648;28;20020;-80
2022/03/23 02:09:26;;;;;;;12.80;9.27;;;7.60;99.90;;;;;;5099631;28;20142;-80
2022/03/23 02:11:53;;;;;;;13.13;8.30;;;7.70;99.90;;;;;;5101156;28;20497;-80
2022/03/23 02:14:20;;;;;;;14.82;9.52;;;7.70;99.90;;;;;;5099675;28;20563;-79
2022/03/23 02:16:49;;;;;;;11.43;9.02;;;7.70;99.90;;;;;;5099841;28;20122;-80
2022/03/23 02:19:16;;;;;;;11.88;8.93;;;7.80;99.90;;;;;;5100545;28;20020;-79
2022/03/23 02:21:44;;;;;;;13.75;10.18;;;7.80;99.90;;;;;;5100667;28;20059;-79
2022/03/23 02:24:10;;;;;;;14.38;10.50;;;7.80;99.90;;;;;;5098978;28;20020;-80
2022/03/23 02:26:37;;;;;;;10.70;8.90;;;7.80;99.90;;;;;;5099152;28;20032;-79
2022/03/23 02:29:07;;;;;;;13.80;9.88;;;7.80;99.90;;;;;;5099161;28;20024;-79
2022/03/23 02:31:35;;;;;;;14.82;9.48;;;7.80;99.90;;;;;;5100697;28;20043;-79
2022/03/23 02:34:01;;;;;;;14.88;9.63;;;7.80;99.90;;;;;;5100677;28;20434;-80
2022/03/23 02:36:27;;;;;;;13.00;9.38;;;7.80;99.90;;;;;;5099486;28;20032;-79
2022/03/23 02:38:53;;;;;;;12.95;9.45;;;7.80;99.90;;;;;;5100898;28;20479;-80
2022/03/23 02:41:19;;;;;;;12.52;9.07;;;7.80;99.90;;;;;;5100514;28;20051;-80
2022/03/23 02:43:45;;;;;;;16.65;9.52;;;7.80;99.90;;;;;;5100599;28;20024;-79
2022/03/23 02:46:16;;;;;;;16.95;10.70;;;7.80;99.90;;;;;;5100382;28;20061;-79
2022/03/23 02:48:43;;;;;;;13.73;9.75;;;8.00;99.90;;;;;;5098795;28;20031;-80
2022/03/23 02:51:10;;;;;;;8.93;8.02;;;7.90;99.90;;;;;;5099094;28;20491;-80
2022/03/23 03:02:25;;;;;;;12.57;9.75;;;7.90;99.90;;;;;;5100409;28;20035;-80
2022/03/23 03:04:51;;;;;;;10.07;7.28;;;7.90;99.90;;;;;;5098798;28;20056;-81
2022/03/23 03:07:18;;;;;;;9.95;8.80;;;7.90;99.90;;;;;;5098691;28;20081;-81
2022/03/23 03:09:44;;;;;;;11.35;9.80;;;7.90;99.90;;;;;;5099699;28;20020;-80
2022/03/23 03:12:11;;;;;;;12.68;8.93;;;7.90;99.90;;;;;;5099608;28;20066;-79
2022/03/23 03:14:38;;;;;;;13.07;9.43;;;7.80;99.90;;;;;;5099669;28;20115;-80
2022/03/23 03:17:05;;;;;;;14.27;9.18;;;7.80;99.90;;;;;;5099785;28;20098;-79
2022/03/23 03:19:32;;;;;;;16.42;9.35;;;7.80;99.90;;;;;;5099861;28;20020;-79
2022/03/23 03:21:57;;;;;;;10.43;8.82;;;7.80;99.90;;;;;;5099730;28;20012;-80
2022/03/23 03:24:23;;;;;;;13.00;9.20;;;7.80;99.90;;;;;;5099330;28;20036;-78
2022/03/23 03:26:50;;;;;;;14.07;9.65;;;7.90;99.90;;;;;;5098376;28;20507;-79
2022/03/23 03:29:16;;;;;;;14.02;9.38;;;7.90;99.90;;;;;;5099762;28;20099;-79
2022/03/23 03:31:43;;;;;;;12.93;9.35;;;7.90;99.90;;;;;;5099520;28;20049;-80
2022/03/23 03:34:09;;;;;;;13.57;8.60;;;8.00;99.90;;;;;;5099723;28;20039;-78
2022/03/23 03:36:36;;;;;;;12.75;8.90;;;8.10;99.90;;;;;;5099352;28;20463;-79
2022/03/23 03:39:04;;;;;;;14.52;9.20;;;8.10;99.90;;;;;;5099497;28;20399;-79
2022/03/23 03:41:31;;;;;;;15.52;8.93;;;8.10;99.90;;;;;;5097830;28;20128;-79
2022/03/23 03:43:57;;;;;;;12.38;8.57;;;8.00;99.90;;;;;;5098186;28;20032;-79
2022/03/23 03:46:24;;;;;;;15.18;9.30;;;8.00;99.90;;;;;;5097796;28;20496;-80
2022/03/23 03:48:50;;;;;;;13.48;8.18;;;8.00;99.90;;;;;;5099211;28;20028;-79
2022/03/23 03:51:16;;;;;;;11.48;9.95;;;8.00;99.90;;;;;;5097838;28;20453;-80
2022/03/23 03:53:42;;;;;;;11.93;8.40;;;8.00;99.90;;;;;;5098962;28;20028;-80
2022/03/23 03:56:09;;;;;;;13.30;9.32;;;8.00;99.90;;;;;;5098931;28;20452;-79
2022/03/23 03:58:35;;;;;;;13.68;9.00;;;8.00;99.90;;;;;;5097828;28;20020;-80
2022/03/23 04:01:00;;;;;;;12.25;9.00;;;8.00;99.90;;;;;;5098220;28;20483;-78
2022/03/23 04:03:26;;;;;;;11.32;9.32;;;8.00;99.90;;;;;;5097901;28;20031;-80
2022/03/23 04:05:52;;;;;;;12.77;9.73;;;8.00;99.90;;;;;;5099223;28;20048;-81
2022/03/23 04:08:18;;;;;;;11.52;9.25;;;8.00;99.90;;;;;;5099152;28;20075;-79
2022/03/23 04:10:44;;;;;;;10.60;8.20;;;8.00;99.90;;;;;;5098858;28;20442;-79
2022/03/23 04:13:10;;;;;;;15.50;10.32;;;8.10;99.90;;;;;;5099350;28;20032;-80
2022/03/23 04:15:36;;;;;;;10.73;9.52;;;8.00;99.90;;;;;;5098734;28;20055;-81
2022/03/23 04:18:02;;;;;;;12.80;9.27;;;8.00;99.90;;;;;;5098558;28;20059;-79
2022/03/23 04:20:29;;;;;;;15.25;9.90;;;8.00;99.90;;;;;;5098356;28;20057;-79
2022/03/23 04:22:55;;;;;;;14.50;8.77;;;7.90;99.90;;;;;;5096454;28;20024;-79
2022/03/23 04:25:22;;;;;;;13.15;9.52;;;8.00;99.90;;;;;;5098089;28;20373;-79
2022/03/23 04:27:50;;;;;;;18.13;10.23;;;7.90;99.90;;;;;;5098406;28;20400;-80
2022/03/23 04:30:19;;;;;;;10.77;8.63;;;7.90;99.90;;;;;;5097346;28;20134;-79
2022/03/23 04:32:47;;;;;;;12.32;9.13;;;7.90;99.90;;;;;;5096832;28;20145;-80
2022/03/23 04:35:13;;;;;;;15.02;9.55;;;7.90;99.90;;;;;;5098249;28;20020;-80
2022/03/23 04:37:43;;;;;;;12.75;10.18;;;7.90;99.90;;;;;;5097519;28;20464;-79
2022/03/23 04:40:11;;;;;;;10.70;9.50;;;7.90;99.90;;;;;;5096434;28;20086;-79
2022/03/23 04:42:38;;;;;;;12.05;9.07;;;7.90;99.90;;;;;;5097112;28;20024;-79
2022/03/23 04:45:05;;;;;;;13.68;9.68;;;8.00;99.90;;;;;;5098769;28;20077;-80
2022/03/23 04:47:33;;;;;;;17.13;9.02;;;8.00;99.90;;;;;;5098298;28;20027;-80
2022/03/23 04:49:59;;;;;;;10.50;9.07;;;8.10;99.90;;;;;;5097900;28;20496;-79
2022/03/23 04:52:25;;;;;;;14.05;10.73;;;8.00;99.90;;;;;;5097650;28;20031;-79
2022/03/23 04:54:56;;;;;;;12.35;8.52;;;8.00;99.90;;;;;;5097900;28;20054;-80
2022/03/23 04:57:26;;;;;;;15.80;9.60;;;8.00;99.90;;;;;;5096659;28;20450;-80
2022/03/23 04:59:52;;;;;;;10.20;8.68;;;8.00;99.90;;;;;;5097812;28;20016;-80
2022/03/23 05:02:19;;;;;;;12.15;9.88;;;8.00;99.90;;;;;;5097693;28;20091;-80
2022/03/23 05:04:45;;;;;;;13.13;9.30;;;8.00;99.90;;;;;;5098215;28;20024;-79
2022/03/23 05:07:12;;;;;;;13.05;9.43;;;7.90;99.90;;;;;;5096520;28;20376;-80
2022/03/23 05:09:38;;;;;;;12.55;9.23;;;8.00;99.90;;;;;;5096195;28;20617;-79
2022/03/23 05:12:04;;;;;;;11.95;9.70;;;7.90;99.90;;;;;;5097600;28;20024;-80
2022/03/23 05:14:30;;;;;;;12.77;9.07;;;7.90;99.90;;;;;;5096453;28;20110;-80
2022/03/23 05:16:56;;;;;;;13.80;9.80;;;7.90;99.90;;;;;;5097718;28;20070;-80
2022/03/23 05:19:22;;;;;;;15.52;10.32;;;7.90;99.90;;;;;;5096352;28;20119;-79
2022/03/23 05:21:47;;;;;;;16.25;9.35;;;7.90;99.90;;;;;;5097463;28;20016;-79
2022/03/23 05:24:13;;;;;;;10.50;9.32;;;8.00;99.90;;;;;;5097102;28;20384;-79
2022/03/23 05:26:39;;;;;;;12.23;9.60;;;8.00;99.90;;;;;;5097840;28;20024;-78
2022/03/23 05:29:05;;;;;;;15.48;9.55;;;7.90;99.90;;;;;;5096029;28;20028;-78
2022/03/23 05:31:31;;;;;;;12.40;9.52;;;7.90;99.90;;;;;;5085853;28;20020;-79
2022/03/23 05:33:57;;;;;;;16.13;10.07;;;7.90;99.90;;;;;;5096750;28;20404;-79
2022/03/23 05:36:22;;;;;;;15.93;9.73;;;7.90;99.90;;;;;;5096219;28;20454;-79
2022/03/23 05:38:48;;;;;;;12.07;10.35;;;7.90;99.90;;;;;;5095857;28;20022;-80
2022/03/23 05:41:14;;;;;;;12.32;9.27;;;7.80;99.90;;;;;;5097083;28;20048;-80
2022/03/23 05:43:40;;;;;;;13.95;9.85;;;7.80;99.90;;;;;;5097155;28;20437;-79
2022/03/23 05:46:06;;;;;;;16.20;9.15;;;7.80;99.90;;;;;;5097707;28;20028;-79
2022/03/23 05:48:32;;;;;;;13.25;9.35;;;7.80;99.90;;;;;;5097180;28;20036;-79
2022/03/23 05:50:58;;;;;;;18.05;10.82;;;7.80;99.90;;;;;;5097660;28;20020;-79
2022/03/23 05:53:23;;;;;;;11.13;9.48;;;7.90;99.90;;;;;;5097311;28;20044;-80
2022/03/23 05:55:49;;;;;;;15.38;9.80;;;7.90;99.90;;;;;;5095660;28;20081;-79
2022/03/23 05:58:17;;;;;;;15.93;9.77;;;7.90;99.90;;;;;;5097066;28;20511;-79
2022/03/23 06:00:43;;;;;;;15.05;9.50;;;7.90;99.90;;;;;;5096270;28;20483;-80
2022/03/23 06:03:10;;;;;;;14.95;9.63;;;8.00;99.90;;;;;;5076286;28;20020;-80
2022/03/23 06:05:36;;;;;;;22.33;10.63;;;7.90;99.90;;;;;;5089960;28;20040;-80
2022/03/23 06:08:03;;;;;;;17.48;9.77;;;7.90;99.90;;;;;;5097279;28;20031;-80
2022/03/23 06:10:29;;;;;;;15.25;10.30;;;7.90;99.90;;;;;;5096613;28;20391;-80
2022/03/23 06:12:55;;;;;;;13.38;9.82;;;7.80;99.90;;;;;;5097870;28;20028;-80
2022/03/23 06:15:21;;;;;;;12.00;8.77;;;7.90;99.90;;;;;;5097794;28;20024;-81
2022/03/23 06:17:47;;;;;;;17.33;10.10;;;7.90;99.90;;;;;;5095527;28;20107;-80
2022/03/23 06:20:14;;;;;;;11.35;9.80;;;7.90;99.90;;;;;;5097080;28;20058;-82
2022/03/23 06:22:40;;;;;;;13.52;9.90;;;7.90;99.90;;;;;;5110516;28;20109;-80
2022/03/23 06:25:07;;;;;;;14.18;9.60;;;8.00;99.90;;;;;;5091727;28;20528;-80
2022/03/23 06:27:34;;;;;;;13.10;9.32;;;8.00;99.90;;;;;;5091139;28;20392;-79
2022/03/23 06:30:01;;;;;;;16.55;9.63;;;8.10;99.90;;;;;;5090141;28;20027;-79
2022/03/23 06:32:27;;;;;;;12.55;10.20;;;8.10;99.90;;;;;;5084283;28;20017;-80
2022/03/23 06:34:53;;;;;;;11.95;9.80;;;8.00;99.90;;;;;;5083746;28;20024;-79
2022/03/23 06:37:18;;;;;;;13.05;10.10;;;8.10;99.90;;;;;;5099755;28;20373;-79
2022/03/23 06:39:44;;;;;;;14.90;10.00;;;8.10;99.90;;;;;;5096715;28;20129;-79
2022/03/23 06:42:10;;;;;;;13.57;10.35;;;8.20;99.90;;;;;;5098253;28;20119;-79
2022/03/23 06:44:38;;;;;;;17.73;10.73;;;8.20;99.90;;;;;;5099788;28;20047;-79
2022/03/23 06:47:05;;;;;;;17.88;9.88;;;8.30;99.90;;;;;;5099982;28;20455;-78
2022/03/23 06:49:31;;;;;;;12.77;8.98;;;8.30;99.90;;;;;;5098392;28;20430;-79
2022/03/23 06:51:56;;;;;;;31.05;12.55;;;8.40;99.90;;;;;;5097115;28;20047;-80
2022/03/23 06:54:22;;;;;;;13.55;9.82;;;8.40;99.90;;;;;;5098740;28;20088;-80
2022/03/23 06:56:51;;;;;;;13.95;9.48;;;8.50;99.90;;;;;;5098826;28;20027;-81
2022/03/23 06:59:18;;;;;;;16.48;10.10;;;8.50;99.90;;;;;;5100127;28;20538;-81
2022/03/23 07:01:44;;;;;;;18.40;10.25;;;8.60;99.90;;;;;;5100616;28;20055;-81
2022/03/23 07:04:10;;;;;;;13.90;9.32;;;8.60;99.90;;;;;;5100065;28;20031;-81
2022/03/23 07:06:36;;;;;;;17.48;9.27;;;8.70;99.90;;;;;;5100531;28;20024;-80
2022/03/23 07:11:47;;;;;;;13.45;9.00;;;8.80;99.90;;;;;;5094106;28;20051;-81
2022/03/23 07:14:12;;;;;;;12.05;9.35;;;8.80;99.90;;;;;;5099611;28;20016;-81
2022/03/23 07:16:38;;;;;;;16.98;10.82;;;8.90;99.90;;;;;;5099991;28;20025;-82
2022/03/23 07:19:04;;;;;;;17.02;10.75;;;9.00;99.90;;;;;;5092674;28;20024;-81
2022/03/23 07:21:31;;;;;;;12.45;8.82;;;9.00;99.90;;;;;;5098266;28;20381;-82
2022/03/23 07:23:57;;;;;;;11.40;9.07;;;9.10;99.90;;;;;;5098289;28;20553;-81
2022/03/23 07:26:23;;;;;;;14.35;10.68;;;9.20;99.90;;;;;;5098431;28;20024;-81
2022/03/23 07:28:49;;;;;;;17.70;9.88;;;9.20;99.90;;;;;;5096839;28;20020;-79
2022/03/23 07:31:15;;;;;;;13.80;9.02;;;9.20;99.90;;;;;;5089544;28;20047;-79
2022/03/23 07:33:41;;;;;;;14.15;9.27;;;9.30;99.90;;;;;;5098336;28;20024;-79
2022/03/23 07:36:07;;;;;;;12.18;9.27;;;9.40;99.90;;;;;;5098033;28;20039;-80
2022/03/23 07:38:33;;;;;;;13.70;9.90;;;9.50;99.90;;;;;;5098003;28;20392;-79
2022/03/23 07:40:59;;;;;;;17.15;10.82;;;9.50;99.90;;;;;;5097797;28;20051;-79
2022/03/23 07:43:25;;;;;;;11.63;9.13;;;9.60;99.90;;;;;;5099145;28;20024;-79
2022/03/23 07:45:50;;;;;;;15.68;9.23;;;9.70;99.90;;;;;;5099600;28;20469;-79
2022/03/23 07:48:16;;;;;;;13.10;8.88;;;9.80;99.90;;;;;;5098752;28;20024;-78
2022/03/23 07:50:43;;;;;;;12.77;9.07;;;9.80;99.90;;;;;;5099420;28;20050;-79
2022/03/23 07:53:08;;;;;;;11.88;8.55;;;9.90;99.90;;;;;;5085646;28;20024;-80
2022/03/23 07:55:34;;;;;;;15.18;8.95;;;10.00;99.90;;;;;;5096766;28;20035;-79
2022/03/23 07:58:00;;;;;;;13.27;8.38;;;10.00;99.90;;;;;;5097567;28;20020;-80
2022/03/23 08:00:26;;;;;;;11.98;8.27;;;10.10;99.90;;;;;;5093016;28;20028;-79
2022/03/23 08:02:52;;;;;;;12.57;8.77;;;10.20;99.90;;;;;;5093888;28;20094;-79
2022/03/23 08:05:18;;;;;;;17.77;8.98;;;10.20;99.90;;;;;;5099212;28;20035;-80
2022/03/23 08:07:45;;;;;;;18.75;7.93;;;10.30;99.90;;;;;;5098585;28;20107;-80
2022/03/23 08:10:11;;;;;;;14.32;8.52;;;10.30;99.90;;;;;;5098565;28;20105;-80
2022/03/23 08:12:37;;;;;;;10.93;8.05;;;10.40;99.90;;;;;;5098800;28;20048;-79
2022/03/23 08:15:03;;;;;;;12.05;8.75;;;10.40;99.90;;;;;;5097802;28;20028;-80
2022/03/23 08:17:29;;;;;;;14.15;8.63;;;10.50;99.90;;;;;;5099096;28;20051;-79
2022/03/23 08:22:53;;;;;;;16.60;8.10;;;10.60;99.90;;;;;;5081133;28;20063;-79
2022/03/23 08:25:19;;;;;;;10.93;7.68;;;10.70;99.90;;;;;;5097852;28;20443;-79
2022/03/23 08:27:45;;;;;;;15.75;6.80;;;10.80;99.90;;;;;;5098780;28;20404;-79
2022/03/23 08:30:11;;;;;;;7.50;6.00;;;10.80;99.90;;;;;;5097405;28;20032;-79
2022/03/23 08:32:37;;;;;;;12.95;7.85;;;10.80;99.90;;;;;;5083523;28;20032;-80
2022/03/23 08:35:03;;;;;;;12.93;8.30;;;10.90;99.90;;;;;;5085463;28;20142;-79
2022/03/23 08:37:29;;;;;;;9.55;7.65;;;10.90;99.90;;;;;;5098395;28;20027;-79
2022/03/23 08:39:56;;;;;;;10.60;8.13;;;11.00;99.90;;;;;;5096543;28;20035;-80
2022/03/23 08:42:22;;;;;;;8.60;7.53;;;11.10;99.90;;;;;;5098103;28;20488;-79
2022/03/23 08:44:48;;;;;;;11.95;7.18;;;11.20;99.90;;;;;;5098173;28;20119;-80
2022/03/23 08:47:14;;;;;;;15.88;7.55;;;11.30;99.90;;;;;;5096911;28;20047;-80
2022/03/23 08:49:39;;;;;;;14.90;7.88;;;11.40;99.90;;;;;;5093931;28;20070;-79
2022/03/23 08:52:06;;;;;;;14.13;7.93;;;11.40;99.90;;;;;;5085186;28;20020;-80
2022/03/23 08:54:32;;;;;;;11.52;8.60;;;11.40;99.90;;;;;;5098154;28;20067;-80
2022/03/23 08:56:58;;;;;;;14.80;7.22;;;11.60;99.90;;;;;;5098148;28;20031;-80
2022/03/23 08:59:24;;;;;;;10.80;8.25;;;11.60;99.90;;;;;;5085603;28;20024;-80
2022/03/23 09:01:50;;;;;;;6.93;6.18;;;11.60;99.90;;;;;;5096196;28;20090;-80
2022/03/23 09:04:16;;;;;;;11.07;6.72;;;11.60;99.90;;;;;;5096928;28;20028;-80
2022/03/23 09:06:42;;;;;;;19.13;7.28;;;11.60;99.90;;;;;;5098159;28;20115;-80
2022/03/23 09:09:08;;;;;;;10.63;7.43;;;11.70;99.90;;;;;;5096780;28;20062;-80
2022/03/23 09:11:34;;;;;;;16.25;8.05;;;11.70;99.90;;;;;;5096145;28;20016;-79
2022/03/23 09:14:00;;;;;;;9.77;7.40;;;11.80;99.90;;;;;;5096505;28;20024;-81
2022/03/23 09:16:26;;;;;;;10.15;8.05;;;11.90;99.90;;;;;;5096984;28;20020;-80
2022/03/23 09:18:53;;;;;;;11.75;7.53;;;11.90;99.90;;;;;;5096938;28;20051;-81
2022/03/23 09:21:20;;;;;;;11.10;7.63;;;12.00;99.90;;;;;;5096577;28;20080;-81
2022/03/23 09:23:46;;;;;;;13.00;7.80;;;12.10;99.90;;;;;;5078978;28;20036;-80
2022/03/23 09:26:12;;;;;;;8.27;7.00;;;12.10;99.90;;;;;;5098283;28;20027;-79
2022/03/23 09:28:38;;;;;;;12.77;7.05;;;12.20;99.90;;;;;;5098383;28;20022;-81
2022/03/23 09:31:05;;;;;;;16.27;7.03;;;12.20;99.90;;;;;;5085256;28;20031;-80
2022/03/23 09:33:31;;;;;;;9.63;7.30;;;12.20;99.90;;;;;;5097848;28;20055;-80
2022/03/23 09:35:57;;;;;;;9.02;6.65;;;12.30;99.90;;;;;;5093343;28;20028;-80
2022/03/23 09:38:23;;;;;;;13.82;7.25;;;12.40;99.90;;;;;;5095803;28;20023;-79
2022/03/23 09:40:50;;;;;;;10.25;6.90;;;12.50;99.90;;;;;;5097140;28;20484;-78
2022/03/23 09:43:21;;;;;;;9.35;7.43;;;12.50;99.90;;;;;;5095957;28;20392;-79
2022/03/23 09:45:47;;;;;;;9.82;7.53;;;12.50;99.90;;;;;;5097471;28;20507;-80
2022/03/23 09:48:26;;;;;;;9.00;5.55;;;12.50;99.90;;;;;;5096093;28;20059;-80
2022/03/23 09:50:55;;;;;;;10.95;7.10;;;12.60;99.90;;;;;;5093838;28;20039;-79
2022/03/23 09:53:23;;;;;;;13.90;6.85;;;12.60;99.90;;;;;;5089640;28;20028;-80
2022/03/23 09:55:52;;;;;;;10.65;7.28;;;12.60;99.90;;;;;;5096981;28;20101;-79
2022/03/23 09:58:19;;;;;;;20.30;7.93;;;12.60;99.90;;;;;;5098060;28;20024;-79
2022/03/23 10:00:45;;;;;;;9.93;6.70;;;12.60;99.90;;;;;;5099972;28;20024;-80
2022/03/23 10:03:13;;;;;;;13.23;7.32;;;12.70;99.90;;;;;;5094923;28;20366;-79
2022/03/23 10:06:17;;;;;;;7.85;6.47;;;12.80;99.90;;;;;;5079912;28;20082;-80
2022/03/23 10:09:17;;;;;;;8.70;6.32;;;12.90;99.90;;;;;;5096128;28;20034;-80
2022/03/23 10:12:20;;;;;;;9.75;7.45;;;13.10;99.90;;;;;;5094642;28;20050;-80
2022/03/23 10:15:19;;;;;;;8.18;6.38;;;13.10;99.90;;;;;;5088843;28;20036;-80
2022/03/23 10:18:18;;;;;;;11.25;6.47;;;13.20;99.90;;;;;;5097199;28;20027;-79
2022/03/23 10:20:44;;;;;;;9.98;6.65;;;13.10;99.90;;;;;;5094608;28;20028;-79
2022/03/23 10:23:09;;;;;;;14.02;8.02;;;13.20;99.90;;;;;;5100422;28;20456;-79
2022/03/23 10:25:38;;;;;;;8.73;6.47;;;13.30;99.90;;;;;;5100362;28;20035;-79
2022/03/23 10:28:13;;;;;;;12.43;7.30;;;13.30;99.90;;;;;;5099714;28;20016;-79
2022/03/23 10:30:39;;;;;;;12.52;8.23;;;13.30;99.90;;;;;;5098903;28;20024;-80
2022/03/23 10:33:19;;;;;;;14.80;7.65;;;13.40;99.90;;;;;;5100484;28;20035;-80
2022/03/23 10:35:46;;;;;;;13.88;6.95;;;13.40;99.90;;;;;;5100602;28;20024;-81
2022/03/23 10:38:17;;;;;;;11.95;6.90;;;13.40;99.90;;;;;;5098082;28;20028;-81
2022/03/23 10:40:45;;;;;;;9.57;6.75;;;13.50;99.90;;;;;;5098623;28;20042;-79
2022/03/23 10:43:20;;;;;;;15.88;6.88;;;13.50;99.90;;;;;;5098868;28;20559;-79
2022/03/23 10:45:47;;;;;;;9.73;6.20;;;13.60;99.90;;;;;;5096835;28;20395;-80
2022/03/23 10:48:18;;;;;;;7.25;5.35;;;13.60;99.90;;;;;;5098985;28;20069;-80
2022/03/23 10:50:54;;;;;;;12.15;8.13;;;13.70;99.90;;;;;;5092844;28;20050;-81
2022/03/23 10:53:39;;;;;;;14.85;8.40;;;13.60;99.90;;;;;;5097468;28;20032;-82
2022/03/23 10:56:06;;;;;;;13.27;7.05;;;13.70;99.90;;;;;;5098795;28;20093;-79
2022/03/23 10:58:32;;;;;;;10.63;6.75;;;13.80;99.90;;;;;;5098701;28;20056;-79
2022/03/23 11:01:06;;;;;;;16.38;6.78;;;13.70;99.90;;;;;;5100194;28;20027;-80
2022/03/23 11:03:36;;;;;;;11.43;6.32;;;13.70;99.90;;;;;;5100259;28;20039;-79
2022/03/23 11:06:02;;;;;;;15.68;7.18;;;13.70;99.90;;;;;;5098611;28;20032;-80
2022/03/23 11:08:28;;;;;;;15.60;7.07;;;13.70;99.90;;;;;;5089286;28;20025;-81
2022/03/23 11:16:51;;;;;;;10.48;6.78;;;13.90;99.90;;;;;;5099685;28;20491;-80
2022/03/23 11:19:23;;;;;;;11.45;6.68;;;13.90;99.90;;;;;;5098421;28;20384;-80
2022/03/23 11:22:13;;;;;;;8.75;5.97;;;14.00;99.90;;;;;;5099604;28;20468;-80
2022/03/23 11:24:41;;;;;;;11.40;6.47;;;13.90;99.90;;;;;;5098199;28;20027;-80
2022/03/23 11:27:12;;;;;;;10.82;7.22;;;14.00;99.90;;;;;;5098686;28;20081;-80
2022/03/23 11:29:39;;;;;;;10.40;6.60;;;14.00;99.90;;;;;;5089535;28;20028;-79
2022/03/23 11:32:11;;;;;;;10.23;6.97;;;14.00;99.90;;;;;;5094795;28;20040;-80
2022/03/23 11:34:39;;;;;;;15.57;6.40;;;14.00;99.90;;;;;;5099661;28;20161;-79
2022/03/23 11:37:07;;;;;;;8.75;6.07;;;14.10;99.90;;;;;;5099439;28;20023;-79
2022/03/23 11:39:36;;;;;;;19.38;6.32;;;14.10;99.90;;;;;;5098055;28;20190;-80
2022/03/23 11:42:06;;;;;;;10.13;6.25;;;14.10;99.90;;;;;;5097591;28;20040;-80
2022/03/23 11:44:34;;;;;;;14.03;6.77;;;14.10;99.90;;;;;;5099498;28;20031;-81
2022/03/23 11:47:08;;;;;;;11.73;7.65;;;14.30;99.90;;;;;;5099162;28;20032;-81
2022/03/23 11:49:41;;;;;;;12.90;6.05;;;14.30;99.90;;;;;;5090583;28;20050;-79
2022/03/23 11:52:16;;;;;;;13.32;6.55;;;14.30;99.90;;;;;;5097515;28;20079;-80
2022/03/23 11:57:56;;;;;;;8.82;7.18;;;14.40;99.90;;;;;;5099115;28;20484;-79
2022/03/23 12:00:36;;;;;;;7.40;5.82;;;14.50;99.90;;;;;;5098971;28;20031;-80
2022/03/23 12:03:01;;;;;;;13.18;6.45;;;14.60;99.90;;;;;;5098704;28;20533;-80
2022/03/23 12:05:30;;;;;;;10.70;6.28;;;14.40;99.90;;;;;;5099195;28;20028;-81
2022/03/23 12:07:57;;;;;;;12.55;6.75;;;14.60;99.90;;;;;;5097712;28;20031;-81
2022/03/23 12:10:28;;;;;;;12.68;6.35;;;14.50;99.90;;;;;;5087986;28;20033;-81
2022/03/23 12:12:55;;;;;;;8.30;6.07;;;14.70;99.90;;;;;;5096782;28;20032;-80
2022/03/23 12:15:24;;;;;;;9.20;6.82;;;14.60;99.90;;;;;;5097350;28;20074;-81
2022/03/23 12:17:55;;;;;;;9.88;6.10;;;14.60;99.90;;;;;;5092319;28;20020;-81
2022/03/23 12:20:31;;;;;;;9.30;6.75;;;14.70;99.90;;;;;;5085279;28;20059;-81
2022/03/23 12:23:28;;;;;;;9.75;7.55;;;14.80;99.90;;;;;;5098474;28;20024;-80
2022/03/23 12:26:13;;;;;;;13.13;5.45;;;14.80;99.90;;;;;;5098256;28;20077;-81
2022/03/23 12:28:43;;;;;;;11.05;7.47;;;14.80;99.90;;;;;;5081979;28;20111;-79
2022/03/23 12:31:15;;;;;;;11.63;7.43;;;14.80;99.90;;;;;;5081849;28;20030;-81
2022/03/23 12:34:12;;;;;;;9.77;6.93;;;14.90;99.90;;;;;;5094983;28;20016;-80
2022/03/23 12:36:59;;;;;;;8.65;5.75;;;14.90;99.90;;;;;;5098220;28;20429;-79
2022/03/23 12:39:27;;;;;;;9.75;6.15;;;14.90;99.90;;;;;;5096370;28;20098;-79
2022/03/23 12:41:54;;;;;;;10.10;6.72;;;14.90;99.90;;;;;;5084443;28;20044;-79
2022/03/23 12:44:31;;;;;;;9.27;5.43;;;14.90;99.90;;;;;;5097846;28;20515;-80
2022/03/23 12:47:05;;;;;;;10.38;6.32;;;14.80;99.90;;;;;;5093127;28;20032;-79
2022/03/23 12:58:11;;;;;;;11.10;6.28;;;15.10;99.90;;;;;;5096930;28;20051;-79
2022/03/23 13:00:45;;;;;;;10.77;6.85;;;15.00;99.90;;;;;;5096845;28;20065;-78
2022/03/23 13:03:11;;;;;;;16.80;5.65;;;15.00;99.90;;;;;;5097157;28;20028;-80
2022/03/23 13:05:57;;;;;;;7.72;5.97;;;15.00;99.90;;;;;;5097305;28;20101;-81
2022/03/23 13:08:33;;;;;;;10.65;5.80;;;14.90;99.90;;;;;;5095913;28;20365;-79
2022/03/23 13:11:00;;;;;;;11.18;6.55;;;14.90;99.90;;;;;;5097194;28;20035;-79
2022/03/23 13:13:32;;;;;;;6.70;5.80;;;14.90;99.90;;;;;;5090191;28;20028;-78
2022/03/23 13:16:02;;;;;;;11.38;6.18;;;15.00;99.90;;;;;;5097474;28;20041;-79
2022/03/23 13:18:30;;;;;;;8.05;5.40;;;15.00;99.90;;;;;;5097589;28;20049;-78
2022/03/23 13:20:57;;;;;;;10.73;6.72;;;15.10;99.90;;;;;;5096051;28;20107;-79